sensor_id;sensor_type;location;lat;lon;timestamp;pressure;altitude;pressure_sealevel;temperature;humidity
56241;BME280;42155;53.096;23.226;2023-07-13T00:00:30;99383.97;;;18.97;82.46
56241;BME280;42155;53.096;23.226;2023-07-13T00:02:30;99388.44;;;18.90;83.02
56241;BME280;42155;53.096;23.226;2023-07-13T00:04:30;99380.50;;;18.81;83.38
56241;BME280;42155;53.096;23.226;2023-07-13T00:06:31;99383.94;;;18.75;83.70
56241;BME280;42155;53.096;23.226;2023-07-13T00:08:31;99384.59;;;18.77;83.69
56241;BME280;42155;53.096;23.226;2023-07-13T00:10:31;99397.38;;;18.75;84.13
56241;BME280;42155;53.096;23.226;2023-07-13T00:12:34;99397.38;;;18.75;84.05
56241;BME280;42155;53.096;23.226;2023-07-13T00:14:35;99399.69;;;18.78;84.05
56241;BME280;42155;53.096;23.226;2023-07-13T00:16:36;99406.94;;;18.78;84.10
56241;BME280;42155;53.096;23.226;2023-07-13T00:18:37;99405.06;;;18.78;84.37
56241;BME280;42155;53.096;23.226;2023-07-13T00:20:37;99409.78;;;18.76;84.06
56241;BME280;42155;53.096;23.226;2023-07-13T00:22:38;99416.84;;;18.77;84.47
56241;BME280;42155;53.096;23.226;2023-07-13T00:24:38;99385.72;;;18.68;83.95
56241;BME280;42155;53.096;23.226;2023-07-13T00:26:40;99408.66;;;18.86;83.48
56241;BME280;42155;53.096;23.226;2023-07-13T00:28:40;99407.81;;;18.85;83.77
56241;BME280;42155;53.096;23.226;2023-07-13T00:30:40;99414.03;;;18.86;83.75
56241;BME280;42155;53.096;23.226;2023-07-13T00:32:41;99398.41;;;18.74;83.85
56241;BME280;42155;53.096;23.226;2023-07-13T00:34:41;99418.97;;;18.82;83.72
56241;BME280;42155;53.096;23.226;2023-07-13T00:36:41;99429.53;;;18.83;83.68
56241;BME280;42155;53.096;23.226;2023-07-13T00:38:42;99423.13;;;18.85;83.49
56241;BME280;42155;53.096;23.226;2023-07-13T00:40:42;99421.47;;;18.83;83.41
56241;BME280;42155;53.096;23.226;2023-07-13T00:42:42;99414.44;;;18.82;83.69
56241;BME280;42155;53.096;23.226;2023-07-13T00:47:20;99395.34;;;18.77;83.45
56241;BME280;42155;53.096;23.226;2023-07-13T00:49:22;99384.72;;;18.69;84.06
56241;BME280;42155;53.096;23.226;2023-07-13T00:51:39;99342.75;;;18.39;83.86
56241;BME280;42155;53.096;23.226;2023-07-13T00:53:40;99362.75;;;18.51;84.27
56241;BME280;42155;53.096;23.226;2023-07-13T00:55:41;99391.00;;;18.62;83.97
56241;BME280;42155;53.096;23.226;2023-07-13T00:57:43;99385.63;;;18.62;84.20
56241;BME280;42155;53.096;23.226;2023-07-13T00:59:59;99391.44;;;18.65;84.28
56241;BME280;42155;53.096;23.226;2023-07-13T01:02:01;99376.91;;;18.60;83.91
56241;BME280;42155;53.096;23.226;2023-07-13T01:04:01;99387.41;;;18.69;83.98
56241;BME280;42155;53.096;23.226;2023-07-13T01:06:02;99390.72;;;18.71;83.64
56241;BME280;42155;53.096;23.226;2023-07-13T01:08:02;99399.81;;;18.70;83.54
56241;BME280;42155;53.096;23.226;2023-07-13T01:10:03;99397.13;;;18.70;83.81
56241;BME280;42155;53.096;23.226;2023-07-13T01:12:04;99389.78;;;18.64;83.38
56241;BME280;42155;53.096;23.226;2023-07-13T01:14:04;99397.31;;;18.69;83.42
56241;BME280;42155;53.096;23.226;2023-07-13T01:16:15;99398.16;;;18.69;83.29
56241;BME280;42155;53.096;23.226;2023-07-13T01:18:21;99397.31;;;18.69;83.56
56241;BME280;42155;53.096;23.226;2023-07-13T01:20:21;99408.06;;;18.69;83.35
56241;BME280;42155;53.096;23.226;2023-07-13T01:22:22;99402.19;;;18.65;83.03
56241;BME280;42155;53.096;23.226;2023-07-13T01:24:22;99415.63;;;18.65;83.18
56241;BME280;42155;53.096;23.226;2023-07-13T01:26:22;99420.66;;;18.68;83.30
56241;BME280;42155;53.096;23.226;2023-07-13T01:28:24;99429.91;;;18.66;83.09
56241;BME280;42155;53.096;23.226;2023-07-13T01:30:25;99412.22;;;18.56;83.26
56241;BME280;42155;53.096;23.226;2023-07-13T01:32:25;99421.50;;;18.54;83.27
56241;BME280;42155;53.096;23.226;2023-07-13T01:34:26;99424.94;;;18.48;83.42
56241;BME280;42155;53.096;23.226;2023-07-13T01:36:27;99411.63;;;18.40;83.86
56241;BME280;42155;53.096;23.226;2023-07-13T01:38:27;99394.19;;;18.21;83.76
56241;BME280;42155;53.096;23.226;2023-07-13T01:40:29;99421.69;;;18.38;83.67
56241;BME280;42155;53.096;23.226;2023-07-13T01:42:29;99367.34;;;18.06;83.98
56241;BME280;42155;53.096;23.226;2023-07-13T01:44:30;99416.25;;;18.31;83.86
56241;BME280;42155;53.096;23.226;2023-07-13T01:46:30;99427.44;;;18.35;83.83
56241;BME280;42155;53.096;23.226;2023-07-13T01:48:31;99428.31;;;18.35;83.78
56241;BME280;42155;53.096;23.226;2023-07-13T01:50:31;99426.44;;;18.36;83.59
56241;BME280;42155;53.096;23.226;2023-07-13T01:52:31;99426.44;;;18.36;83.20
56241;BME280;42155;53.096;23.226;2023-07-13T01:54:32;99425.41;;;18.37;82.92
56241;BME280;42155;53.096;23.226;2023-07-13T01:56:32;99423.28;;;18.32;82.59
56241;BME280;42155;53.096;23.226;2023-07-13T01:58:32;99421.44;;;18.32;82.54
56241;BME280;42155;53.096;23.226;2023-07-13T02:00:33;99420.59;;;18.32;82.66
56241;BME280;42155;53.096;23.226;2023-07-13T02:02:33;99408.19;;;18.16;82.47
56241;BME280;42155;53.096;23.226;2023-07-13T02:04:34;99426.25;;;18.22;82.79
56241;BME280;42155;53.096;23.226;2023-07-13T02:06:34;99430.13;;;18.20;82.92
56241;BME280;42155;53.096;23.226;2023-07-13T02:08:34;99435.72;;;18.18;82.88
56241;BME280;42155;53.096;23.226;2023-07-13T02:10:36;99443.75;;;18.18;82.72
56241;BME280;42155;53.096;23.226;2023-07-13T02:12:37;99439.22;;;18.19;82.28
56241;BME280;42155;53.096;23.226;2023-07-13T02:14:38;99443.75;;;18.18;82.65
56241;BME280;42155;53.096;23.226;2023-07-13T02:16:38;99446.16;;;18.13;82.58
56241;BME280;42155;53.096;23.226;2023-07-13T02:18:38;99444.50;;;18.12;82.69
56241;BME280;42155;53.096;23.226;2023-07-13T02:20:39;99406.53;;;17.86;82.49
56241;BME280;42155;53.096;23.226;2023-07-13T02:22:39;99453.56;;;18.11;82.33
56241;BME280;42155;53.096;23.226;2023-07-13T02:24:39;99386.00;;;17.70;82.13
56241;BME280;42155;53.096;23.226;2023-07-13T02:26:40;99460.16;;;18.09;82.17
56241;BME280;42155;53.096;23.226;2023-07-13T02:28:40;99461.19;;;18.08;81.82
56241;BME280;42155;53.096;23.226;2023-07-13T02:30:40;99446.34;;;17.97;81.41
56241;BME280;42155;53.096;23.226;2023-07-13T02:32:41;99441.91;;;17.89;81.40
56241;BME280;42155;53.096;23.226;2023-07-13T02:34:41;99445.78;;;17.87;81.14
56241;BME280;42155;53.096;23.226;2023-07-13T02:36:41;99450.13;;;17.88;81.29
56241;BME280;42155;53.096;23.226;2023-07-13T02:38:42;99484.59;;;17.99;81.03
56241;BME280;42155;53.096;23.226;2023-07-13T02:40:42;99479.75;;;17.94;81.25
56241;BME280;42155;53.096;23.226;2023-07-13T02:42:43;99485.59;;;17.98;81.12
56241;BME280;42155;53.096;23.226;2023-07-13T02:44:43;99493.00;;;17.96;81.00
56241;BME280;42155;53.096;23.226;2023-07-13T02:46:43;99502.06;;;17.95;81.12
56241;BME280;42155;53.096;23.226;2023-07-13T02:48:44;99504.91;;;17.93;81.09
56241;BME280;42155;53.096;23.226;2023-07-13T02:50:44;99491.59;;;17.85;81.00
56241;BME280;42155;53.096;23.226;2023-07-13T02:52:45;99505.78;;;17.94;81.17
56241;BME280;42155;53.096;23.226;2023-07-13T02:54:45;99505.78;;;17.94;81.17
56241;BME280;42155;53.096;23.226;2023-07-13T02:56:46;99505.78;;;17.94;81.13
56241;BME280;42155;53.096;23.226;2023-07-13T02:58:46;99492.72;;;17.91;81.51
56241;BME280;42155;53.096;23.226;2023-07-13T03:00:47;99494.91;;;17.87;81.31
56241;BME280;42155;53.096;23.226;2023-07-13T03:02:47;99496.47;;;17.81;81.01
56241;BME280;42155;53.096;23.226;2023-07-13T03:04:48;99502.44;;;17.92;81.50
56241;BME280;42155;53.096;23.226;2023-07-13T03:06:48;99507.06;;;17.98;81.45
56241;BME280;42155;53.096;23.226;2023-07-13T03:08:48;99500.16;;;18.03;81.20
56241;BME280;42155;53.096;23.226;2023-07-13T03:10:49;99504.97;;;18.08;80.98
56241;BME280;42155;53.096;23.226;2023-07-13T03:12:49;99488.75;;;18.01;80.72
56241;BME280;42155;53.096;23.226;2023-07-13T03:14:50;99508.56;;;18.15;81.00
56241;BME280;42155;53.096;23.226;2023-07-13T03:16:50;99493.50;;;18.14;80.88
56241;BME280;42155;53.096;23.226;2023-07-13T03:18:51;99506.38;;;18.33;80.77
56241;BME280;42155;53.096;23.226;2023-07-13T03:20:52;99499.25;;;18.41;80.71
56241;BME280;42155;53.096;23.226;2023-07-13T03:22:52;99511.84;;;18.55;80.23
56241;BME280;42155;53.096;23.226;2023-07-13T03:24:54;99504.34;;;18.65;79.90
56241;BME280;42155;53.096;23.226;2023-07-13T03:26:55;99521.50;;;18.79;79.70
56241;BME280;42155;53.096;23.226;2023-07-13T03:28:55;99499.91;;;18.87;79.64
56241;BME280;42155;53.096;23.226;2023-07-13T03:31:03;99515.22;;;19.08;79.03
56241;BME280;42155;53.096;23.226;2023-07-13T03:33:04;99506.69;;;19.19;78.37
56241;BME280;42155;53.096;23.226;2023-07-13T03:35:05;99492.72;;;19.30;78.33
56241;BME280;42155;53.096;23.226;2023-07-13T03:37:05;99510.75;;;19.73;77.52
56241;BME280;42155;53.096;23.226;2023-07-13T03:39:06;99507.84;;;19.96;76.93
56241;BME280;42155;53.096;23.226;2023-07-13T03:41:06;99510.53;;;20.24;76.10
56241;BME280;42155;53.096;23.226;2023-07-13T03:43:06;99500.38;;;20.54;75.36
56241;BME280;42155;53.096;23.226;2023-07-13T03:45:07;99498.84;;;20.79;74.10
56241;BME280;42155;53.096;23.226;2023-07-13T03:47:08;99502.44;;;20.93;73.67
56241;BME280;42155;53.096;23.226;2023-07-13T03:49:09;99504.13;;;21.07;73.00
56241;BME280;42155;53.096;23.226;2023-07-13T03:51:10;99509.34;;;21.09;73.29
56241;BME280;42155;53.096;23.226;2023-07-13T03:53:10;99504.56;;;21.11;72.96
56241;BME280;42155;53.096;23.226;2023-07-13T03:55:11;99485.91;;;21.09;72.68
56241;BME280;42155;53.096;23.226;2023-07-13T03:57:11;99518.38;;;21.43;71.98
56241;BME280;42155;53.096;23.226;2023-07-13T03:59:12;99527.81;;;21.86;71.05
56241;BME280;42155;53.096;23.226;2023-07-13T04:01:14;99526.13;;;22.39;69.13
56241;BME280;42155;53.096;23.226;2023-07-13T04:03:14;99512.66;;;23.03;67.37
56241;BME280;42155;53.096;23.226;2023-07-13T04:05:15;99508.59;;;24.14;64.54
56241;BME280;42155;53.096;23.226;2023-07-13T04:07:15;99505.16;;;24.99;62.43
56241;BME280;42155;53.096;23.226;2023-07-13T04:09:16;99505.66;;;25.56;60.75
56241;BME280;42155;53.096;23.226;2023-07-13T04:11:17;99489.44;;;26.73;58.05
56241;BME280;42155;53.096;23.226;2023-07-13T04:13:18;99495.50;;;28.45;53.84
56241;BME280;42155;53.096;23.226;2023-07-13T04:15:18;99495.22;;;30.26;49.92
56241;BME280;42155;53.096;23.226;2023-07-13T04:17:19;99476.34;;;31.85;46.39
56241;BME280;42155;53.096;23.226;2023-07-13T04:19:19;99479.75;;;33.27;43.74
56241;BME280;42155;53.096;23.226;2023-07-13T04:21:20;99496.81;;;34.61;40.98
56241;BME280;42155;53.096;23.226;2023-07-13T04:23:20;99499.16;;;34.97;39.69
56241;BME280;42155;53.096;23.226;2023-07-13T04:25:21;99504.91;;;34.23;39.96
56241;BME280;42155;53.096;23.226;2023-07-13T04:27:21;99489.88;;;33.76;40.79
56241;BME280;42155;53.096;23.226;2023-07-13T04:29:21;99511.38;;;34.08;40.99
56241;BME280;42155;53.096;23.226;2023-07-13T04:31:22;99515.50;;;33.27;41.63
56241;BME280;42155;53.096;23.226;2023-07-13T04:33:22;99519.63;;;32.60;42.96
56241;BME280;42155;53.096;23.226;2023-07-13T04:35:23;99515.28;;;32.23;43.87
56241;BME280;42155;53.096;23.226;2023-07-13T04:37:23;99521.31;;;31.74;44.34
56241;BME280;42155;53.096;23.226;2023-07-13T04:39:23;99523.97;;;31.38;45.04
56241;BME280;42155;53.096;23.226;2023-07-13T04:41:24;99533.78;;;31.24;45.25
56241;BME280;42155;53.096;23.226;2023-07-13T04:43:24;99526.72;;;31.28;45.30
56241;BME280;42155;53.096;23.226;2023-07-13T04:45:25;99539.25;;;30.61;46.11
56241;BME280;42155;53.096;23.226;2023-07-13T04:47:25;99534.91;;;30.65;46.15
56241;BME280;42155;53.096;23.226;2023-07-13T04:49:26;99519.00;;;31.25;44.85
56241;BME280;42155;53.096;23.226;2023-07-13T04:51:26;99538.34;;;32.17;43.30
56241;BME280;42155;53.096;23.226;2023-07-13T04:53:27;99520.59;;;33.00;42.34
56241;BME280;42155;53.096;23.226;2023-07-13T04:55:28;99526.78;;;33.75;40.97
56241;BME280;42155;53.096;23.226;2023-07-13T04:57:28;99537.22;;;34.41;39.54
56241;BME280;42155;53.096;23.226;2023-07-13T04:59:29;99533.88;;;34.50;39.47
56241;BME280;42155;53.096;23.226;2023-07-13T05:01:29;99535.16;;;33.94;40.75
56241;BME280;42155;53.096;23.226;2023-07-13T05:03:30;99531.38;;;33.45;41.05
56241;BME280;42155;53.096;23.226;2023-07-13T05:05:30;99538.31;;;32.58;42.15
56241;BME280;42155;53.096;23.226;2023-07-13T05:07:32;99534.50;;;32.38;42.67
56241;BME280;42155;53.096;23.226;2023-07-13T05:09:32;99531.19;;;32.21;43.32
56241;BME280;42155;53.096;23.226;2023-07-13T05:11:33;99524.91;;;32.10;43.73
56241;BME280;42155;53.096;23.226;2023-07-13T05:13:33;99509.25;;;32.16;43.98
56241;BME280;42155;53.096;23.226;2023-07-13T05:15:34;99502.97;;;31.90;43.81
56241;BME280;42155;53.096;23.226;2023-07-13T05:17:34;99530.88;;;31.61;44.47
56241;BME280;42155;53.096;23.226;2023-07-13T05:19:34;99537.06;;;31.11;45.63
56241;BME280;42155;53.096;23.226;2023-07-13T05:21:35;99546.09;;;31.06;46.04
56241;BME280;42155;53.096;23.226;2023-07-13T05:23:36;99542.25;;;31.02;45.31
56241;BME280;42155;53.096;23.226;2023-07-13T05:25:36;99548.72;;;30.81;45.93
56241;BME280;42155;53.096;23.226;2023-07-13T05:27:36;99545.81;;;30.55;46.21
56241;BME280;42155;53.096;23.226;2023-07-13T05:29:37;99560.84;;;30.53;46.36
56241;BME280;42155;53.096;23.226;2023-07-13T05:31:37;99564.56;;;30.36;46.29
56241;BME280;42155;53.096;23.226;2023-07-13T05:33:38;99525.81;;;29.85;45.48
56241;BME280;42155;53.096;23.226;2023-07-13T05:35:38;99552.03;;;29.27;46.98
56241;BME280;42155;53.096;23.226;2023-07-13T05:37:38;99564.53;;;29.23;47.81
56241;BME280;42155;53.096;23.226;2023-07-13T05:39:39;99558.81;;;29.25;47.46
56241;BME280;42155;53.096;23.226;2023-07-13T05:41:39;99563.28;;;29.31;47.87
56241;BME280;42155;53.096;23.226;2023-07-13T05:43:39;99537.72;;;29.20;47.74
56241;BME280;42155;53.096;23.226;2023-07-13T05:45:40;99569.78;;;29.52;46.66
56241;BME280;42155;53.096;23.226;2023-07-13T05:47:41;99569.16;;;29.45;47.00
56241;BME280;42155;53.096;23.226;2023-07-13T05:49:43;99568.63;;;29.48;47.16
56241;BME280;42155;53.096;23.226;2023-07-13T05:51:47;99571.81;;;29.61;47.04
56241;BME280;42155;53.096;23.226;2023-07-13T05:53:54;99567.91;;;29.79;46.24
56241;BME280;42155;53.096;23.226;2023-07-13T05:55:55;99574.09;;;29.70;44.57
56241;BME280;42155;53.096;23.226;2023-07-13T05:57:56;99561.16;;;29.38;45.71
56241;BME280;42155;53.096;23.226;2023-07-13T05:59:56;99577.94;;;29.47;46.76
56241;BME280;42155;53.096;23.226;2023-07-13T06:01:57;99580.84;;;29.62;46.87
56241;BME280;42155;53.096;23.226;2023-07-13T06:03:57;99588.19;;;29.83;46.31
56241;BME280;42155;53.096;23.226;2023-07-13T06:05:58;99596.44;;;29.88;45.39
56241;BME280;42155;53.096;23.226;2023-07-13T06:07:58;99600.66;;;30.01;46.17
56241;BME280;42155;53.096;23.226;2023-07-13T06:09:58;99597.03;;;30.23;46.27
56241;BME280;42155;53.096;23.226;2023-07-13T06:12:07;99604.63;;;30.48;45.51
56241;BME280;42155;53.096;23.226;2023-07-13T06:14:19;99601.66;;;30.54;45.05
56241;BME280;42155;53.096;23.226;2023-07-13T06:16:19;99594.19;;;30.44;44.74
56241;BME280;42155;53.096;23.226;2023-07-13T06:18:21;99607.50;;;30.31;44.38
56241;BME280;42155;53.096;23.226;2023-07-13T06:20:22;99611.50;;;30.18;44.43
56241;BME280;42155;53.096;23.226;2023-07-13T06:22:23;99612.53;;;30.12;43.97
56241;BME280;42155;53.096;23.226;2023-07-13T06:24:23;99605.94;;;30.13;44.13
56241;BME280;42155;53.096;23.226;2023-07-13T06:26:24;99610.97;;;30.21;44.29
56241;BME280;42155;53.096;23.226;2023-07-13T06:28:24;99602.25;;;30.24;44.49
56241;BME280;42155;53.096;23.226;2023-07-13T06:30:25;99600.66;;;30.28;44.59
56241;BME280;42155;53.096;23.226;2023-07-13T06:32:25;99580.31;;;30.19;44.08
56241;BME280;42155;53.096;23.226;2023-07-13T06:34:25;99579.13;;;30.10;44.37
56241;BME280;42155;53.096;23.226;2023-07-13T06:36:26;99577.44;;;30.09;43.99
56241;BME280;42155;53.096;23.226;2023-07-13T06:38:26;99584.50;;;30.00;44.27
56241;BME280;42155;53.096;23.226;2023-07-13T06:40:26;99570.91;;;29.78;44.78
56241;BME280;42155;53.096;23.226;2023-07-13T06:42:27;99593.56;;;29.73;45.29
56241;BME280;42155;53.096;23.226;2023-07-13T06:44:27;99578.75;;;29.47;45.49
56241;BME280;42155;53.096;23.226;2023-07-13T06:46:28;99592.56;;;29.35;45.31
56241;BME280;42155;53.096;23.226;2023-07-13T06:48:29;99597.38;;;29.06;45.97
56241;BME280;42155;53.096;23.226;2023-07-13T06:50:29;99595.13;;;28.81;45.44
56241;BME280;42155;53.096;23.226;2023-07-13T06:52:29;99603.59;;;28.63;46.66
56241;BME280;42155;53.096;23.226;2023-07-13T06:54:29;99569.94;;;28.40;48.31
56241;BME280;42155;53.096;23.226;2023-07-13T06:56:30;99605.38;;;28.74;47.90
56241;BME280;42155;53.096;23.226;2023-07-13T06:58:30;99583.78;;;28.89;47.07
56241;BME280;42155;53.096;23.226;2023-07-13T07:00:31;99602.91;;;29.33;46.21
56241;BME280;42155;53.096;23.226;2023-07-13T07:02:31;99597.72;;;29.54;46.85
56241;BME280;42155;53.096;23.226;2023-07-13T07:04:32;99594.97;;;29.81;46.31
56241;BME280;42155;53.096;23.226;2023-07-13T07:06:32;99587.41;;;30.15;45.83
56241;BME280;42155;53.096;23.226;2023-07-13T07:08:32;99590.72;;;30.22;44.21
56241;BME280;42155;53.096;23.226;2023-07-13T07:10:33;99588.81;;;30.23;43.00
56241;BME280;42155;53.096;23.226;2023-07-13T07:12:34;99570.13;;;29.82;43.79
56241;BME280;42155;53.096;23.226;2023-07-13T07:14:34;99582.19;;;29.86;43.91
56241;BME280;42155;53.096;23.226;2023-07-13T07:16:35;99584.16;;;29.91;44.61
56241;BME280;42155;53.096;23.226;2023-07-13T07:18:35;99593.00;;;30.03;44.95
56241;BME280;42155;53.096;23.226;2023-07-13T07:20:36;99590.31;;;30.08;44.13
56241;BME280;42155;53.096;23.226;2023-07-13T07:22:36;99573.25;;;29.96;43.71
56241;BME280;42155;53.096;23.226;2023-07-13T07:24:36;99584.72;;;29.93;44.12
56241;BME280;42155;53.096;23.226;2023-07-13T07:26:36;99580.75;;;29.79;44.17
56241;BME280;42155;53.096;23.226;2023-07-13T07:28:37;99583.75;;;29.77;43.61
56241;BME280;42155;53.096;23.226;2023-07-13T07:30:41;99566.16;;;29.68;43.38
56241;BME280;42155;53.096;23.226;2023-07-13T07:32:42;99573.59;;;29.51;43.28
56241;BME280;42155;53.096;23.226;2023-07-13T07:34:43;99575.25;;;29.30;43.25
56241;BME280;42155;53.096;23.226;2023-07-13T07:36:43;99574.31;;;29.19;43.54
56241;BME280;42155;53.096;23.226;2023-07-13T07:38:43;99570.50;;;29.20;43.96
56241;BME280;42155;53.096;23.226;2023-07-13T07:40:44;99580.88;;;29.18;43.39
56241;BME280;42155;53.096;23.226;2023-07-13T07:42:44;99578.72;;;29.20;43.40
56241;BME280;42155;53.096;23.226;2023-07-13T07:44:45;99543.50;;;29.02;43.38
56241;BME280;42155;53.096;23.226;2023-07-13T07:46:45;99560.22;;;29.27;43.46
56241;BME280;42155;53.096;23.226;2023-07-13T07:48:45;99587.78;;;29.48;43.55
56241;BME280;42155;53.096;23.226;2023-07-13T07:50:46;99582.53;;;29.63;43.49
56241;BME280;42155;53.096;23.226;2023-07-13T07:52:46;99588.00;;;29.63;41.78
56241;BME280;42155;53.096;23.226;2023-07-13T07:54:46;99591.09;;;29.50;42.69
56241;BME280;42155;53.096;23.226;2023-07-13T07:56:47;99578.97;;;29.40;42.58
56241;BME280;42155;53.096;23.226;2023-07-13T07:58:47;99590.94;;;29.39;41.90
56241;BME280;42155;53.096;23.226;2023-07-13T08:00:47;99603.19;;;29.32;41.73
56241;BME280;42155;53.096;23.226;2023-07-13T08:02:48;99585.31;;;29.24;42.83
56241;BME280;42155;53.096;23.226;2023-07-13T08:04:48;99594.84;;;29.43;42.01
56241;BME280;42155;53.096;23.226;2023-07-13T08:06:49;99593.81;;;29.50;42.52
56241;BME280;42155;53.096;23.226;2023-07-13T08:08:49;99592.47;;;29.52;43.35
56241;BME280;42155;53.096;23.226;2023-07-13T08:10:50;99593.47;;;29.63;43.66
56241;BME280;42155;53.096;23.226;2023-07-13T08:12:50;99589.81;;;29.57;42.08
56241;BME280;42155;53.096;23.226;2023-07-13T08:14:51;99592.16;;;29.49;42.50
56241;BME280;42155;53.096;23.226;2023-07-13T08:16:51;99595.31;;;29.35;42.85
56241;BME280;42155;53.096;23.226;2023-07-13T08:18:52;99598.66;;;29.42;42.08
56241;BME280;42155;53.096;23.226;2023-07-13T08:20:52;99593.91;;;29.33;42.54
56241;BME280;42155;53.096;23.226;2023-07-13T08:22:52;99601.91;;;29.17;43.14
56241;BME280;42155;53.096;23.226;2023-07-13T08:24:53;99597.16;;;29.08;43.40
56241;BME280;42155;53.096;23.226;2023-07-13T08:26:53;99587.34;;;29.12;43.84
56241;BME280;42155;53.096;23.226;2023-07-13T08:28:56;99596.06;;;29.31;43.57
56241;BME280;42155;53.096;23.226;2023-07-13T08:31:05;99585.53;;;29.17;42.41
56241;BME280;42155;53.096;23.226;2023-07-13T08:33:06;99586.34;;;29.18;43.25
56241;BME280;42155;53.096;23.226;2023-07-13T08:35:08;99588.31;;;29.45;43.05
56241;BME280;42155;53.096;23.226;2023-07-13T08:37:09;99587.28;;;29.51;43.38
56241;BME280;42155;53.096;23.226;2023-07-13T08:39:10;99585.84;;;29.70;41.94
56241;BME280;42155;53.096;23.226;2023-07-13T08:41:14;99596.47;;;29.93;40.81
56241;BME280;42155;53.096;23.226;2023-07-13T08:43:20;99570.13;;;29.82;41.69
56241;BME280;42155;53.096;23.226;2023-07-13T08:45:28;99575.69;;;29.92;41.35
56241;BME280;42155;53.096;23.226;2023-07-13T08:47:32;99594.44;;;30.11;41.18
56241;BME280;42155;53.096;23.226;2023-07-13T08:49:36;99590.16;;;30.15;40.71
56241;BME280;42155;53.096;23.226;2023-07-13T08:51:39;99609.72;;;30.34;40.42
56241;BME280;42155;53.096;23.226;2023-07-13T08:53:47;99591.38;;;30.34;40.68
56241;BME280;42155;53.096;23.226;2023-07-13T08:55:53;99608.91;;;30.33;39.69
56241;BME280;42155;53.096;23.226;2023-07-13T08:58:10;99596.09;;;30.12;39.88
56241;BME280;42155;53.096;23.226;2023-07-13T09:00:12;99602.88;;;30.04;38.61
56241;BME280;42155;53.096;23.226;2023-07-13T09:07:00;99600.13;;;29.50;41.14
56241;BME280;42155;53.096;23.226;2023-07-13T09:11:53;99600.66;;;29.74;40.97
56241;BME280;42155;53.096;23.226;2023-07-13T09:14:15;99597.53;;;29.87;39.53
56241;BME280;42155;53.096;23.226;2023-07-13T09:16:22;99593.69;;;29.88;41.36
56241;BME280;42155;53.096;23.226;2023-07-13T09:18:42;99598.41;;;29.93;41.39
56241;BME280;42155;53.096;23.226;2023-07-13T09:20:50;99546.38;;;29.61;39.85
56241;BME280;42155;53.096;23.226;2023-07-13T09:22:53;99593.34;;;29.80;40.40
56241;BME280;42155;53.096;23.226;2023-07-13T09:25:06;99585.81;;;29.65;39.96
56241;BME280;42155;53.096;23.226;2023-07-13T09:27:19;99592.59;;;29.62;39.45
56241;BME280;42155;53.096;23.226;2023-07-13T09:29:28;99594.47;;;29.57;39.74
56241;BME280;42155;53.096;23.226;2023-07-13T09:31:35;99597.47;;;29.55;40.13
56241;BME280;42155;53.096;23.226;2023-07-13T09:33:37;99580.72;;;29.52;39.88
56241;BME280;42155;53.096;23.226;2023-07-13T09:35:38;99585.19;;;29.58;39.42
56241;BME280;42155;53.096;23.226;2023-07-13T09:37:38;99575.75;;;29.49;38.71
56241;BME280;42155;53.096;23.226;2023-07-13T09:39:40;99587.22;;;29.46;38.67
56241;BME280;42155;53.096;23.226;2023-07-13T09:44:10;99584.13;;;29.15;39.21
56241;BME280;42155;53.096;23.226;2023-07-13T09:46:21;99561.81;;;29.23;39.45
56241;BME280;42155;53.096;23.226;2023-07-13T09:48:22;99577.38;;;29.45;39.13
56241;BME280;42155;53.096;23.226;2023-07-13T09:50:22;99579.63;;;29.53;38.42
56241;BME280;42155;53.096;23.226;2023-07-13T09:52:22;99579.19;;;29.61;38.35
56241;BME280;42155;53.096;23.226;2023-07-13T09:54:24;99574.69;;;29.50;38.25
56241;BME280;42155;53.096;23.226;2023-07-13T09:56:29;99529.13;;;29.33;40.38
56241;BME280;42155;53.096;23.226;2023-07-13T09:58:30;99574.97;;;29.75;39.48
56241;BME280;42155;53.096;23.226;2023-07-13T10:00:30;99567.44;;;29.87;36.78
56241;BME280;42155;53.096;23.226;2023-07-13T10:02:34;99565.75;;;29.81;37.27
56241;BME280;42155;53.096;23.226;2023-07-13T10:04:35;99556.81;;;29.64;36.62
56241;BME280;42155;53.096;23.226;2023-07-13T10:06:36;99560.25;;;29.54;37.84
56241;BME280;42155;53.096;23.226;2023-07-13T10:08:36;99567.16;;;29.62;38.58
56241;BME280;42155;53.096;23.226;2023-07-13T10:10:37;99560.66;;;29.63;37.32
56241;BME280;42155;53.096;23.226;2023-07-13T10:12:38;99543.97;;;29.42;36.83
56241;BME280;42155;53.096;23.226;2023-07-13T10:14:38;99557.91;;;29.41;36.87
56241;BME280;42155;53.096;23.226;2023-07-13T10:16:41;99564.19;;;29.41;36.67
56241;BME280;42155;53.096;23.226;2023-07-13T10:18:50;99558.22;;;29.45;36.62
56241;BME280;42155;53.096;23.226;2023-07-13T10:20:58;99552.69;;;29.39;37.30
56241;BME280;42155;53.096;23.226;2023-07-13T10:23:13;99550.81;;;29.40;38.53
56241;BME280;42155;53.096;23.226;2023-07-13T10:25:53;99558.38;;;29.55;37.25
56241;BME280;42155;53.096;23.226;2023-07-13T10:27:47;99525.94;;;29.41;37.90
56241;BME280;42155;53.096;23.226;2023-07-13T10:29:53;99545.06;;;29.63;36.62
56241;BME280;42155;53.096;23.226;2023-07-13T10:31:56;99517.47;;;29.43;35.66
56241;BME280;42155;53.096;23.226;2023-07-13T10:33:56;99550.00;;;29.66;35.71
56241;BME280;42155;53.096;23.226;2023-07-13T10:36:23;99530.56;;;29.63;35.92
56241;BME280;42155;53.096;23.226;2023-07-13T10:38:28;99526.50;;;29.71;36.99
56241;BME280;42155;53.096;23.226;2023-07-13T10:42:54;99553.84;;;29.98;36.28
56241;BME280;42155;53.096;23.226;2023-07-13T10:44:56;99543.97;;;29.97;35.43
56241;BME280;42155;53.096;23.226;2023-07-13T10:47:07;99539.03;;;29.93;35.90
56241;BME280;42155;53.096;23.226;2023-07-13T10:49:11;99547.81;;;29.96;36.62
56241;BME280;42155;53.096;23.226;2023-07-13T10:51:14;99543.50;;;30.05;37.09